Time;durP1;ratioP1;P1;durP2;ratioP2;P2;SDS_P1;SDS_P2;PMS_P1;PMS_P2;Temp;Humidity;BMP_temperature;BMP_pressure;BME280_temperature;BME280_humidity;BME280_pressure;Samples;Min_cycle;Max_cycle;Signal;HPM_P1;HPM_P2
2021/06/02 00:00:10;;;;;;;4.18;3.88;;;8.70;99.90;;;;;;4736730;30;20059;-84
2021/06/02 00:02:45;;;;;;;4.93;4.43;;;9.10;99.90;;;;;;4751883;30;20083;-83
2021/06/02 00:05:15;;;;;;;4.07;3.00;;;9.30;99.90;;;;;;4720832;30;20052;-83
2021/06/02 00:07:44;;;;;;;4.35;3.33;;;9.50;99.90;;;;;;4736668;30;20064;-84
2021/06/02 00:10:14;;;;;;;4.20;3.70;;;9.70;99.70;;;;;;4750360;30;20052;-85
2021/06/02 00:12:43;;;;;;;4.40;4.00;;;9.70;99.30;;;;;;4751794;30;20071;-84
2021/06/02 00:15:11;;;;;;;2.78;2.60;;;9.70;99.30;;;;;;4752121;30;20067;-83
2021/06/02 00:17:41;;;;;;;4.68;3.50;;;9.70;99.50;;;;;;4751694;30;20067;-82
2021/06/02 00:20:10;;;;;;;3.92;3.53;;;9.70;99.50;;;;;;4743243;30;20053;-84
2021/06/02 00:22:39;;;;;;;6.97;3.15;;;9.70;99.50;;;;;;4733950;30;20067;-83
2021/06/02 00:25:08;;;;;;;5.25;3.63;;;9.70;99.70;;;;;;4732505;30;20053;-83
2021/06/02 00:27:39;;;;;;;4.97;3.88;;;9.80;99.90;;;;;;4734057;30;20056;-82
2021/06/02 00:30:10;;;;;;;4.28;3.88;;;9.60;99.50;;;;;;4703981;30;20507;-83
2021/06/02 00:32:39;;;;;;;3.10;2.83;;;9.50;99.90;;;;;;4733735;30;20059;-83
2021/06/02 00:35:11;;;;;;;4.00;3.67;;;9.30;99.90;;;;;;4734121;30;20059;-83
2021/06/02 00:37:40;;;;;;;5.05;4.53;;;9.20;99.90;;;;;;4750046;30;20052;-83
2021/06/02 00:40:24;;;;;;;4.40;4.00;;;9.20;99.90;;;;;;4751401;30;20056;-82
2021/06/02 00:42:52;;;;;;;4.88;3.78;;;9.30;99.90;;;;;;4751371;30;20415;-83
2021/06/02 00:45:20;;;;;;;5.53;4.18;;;9.20;99.90;;;;;;4751532;30;20060;-82
2021/06/02 00:47:49;;;;;;;5.53;3.85;;;9.10;99.90;;;;;;4751695;30;20585;-83
2021/06/02 00:50:17;;;;;;;4.20;3.80;;;9.20;99.90;;;;;;4736030;30;20495;-83
2021/06/02 00:52:45;;;;;;;4.63;4.07;;;9.30;99.90;;;;;;4751541;30;20056;-83
2021/06/02 00:55:14;;;;;;;4.82;4.15;;;9.00;99.90;;;;;;4735859;30;20056;-82
2021/06/02 00:57:48;;;;;;;5.57;4.13;;;8.70;99.90;;;;;;4751416;30;20048;-83
2021/06/02 01:00:17;;;;;;;5.80;3.85;;;8.80;99.90;;;;;;4736685;30;20052;-83
2021/06/02 01:02:51;;;;;;;5.28;3.90;;;8.80;99.90;;;;;;4751679;30;20056;-83
2021/06/02 01:05:23;;;;;;;5.00;3.33;;;8.80;99.90;;;;;;4750682;30;20499;-83
2021/06/02 01:07:52;;;;;;;4.40;4.10;;;8.70;99.90;;;;;;4751997;30;20056;-84
2021/06/02 01:10:21;;;;;;;3.35;2.97;;;8.70;99.90;;;;;;4749787;30;20392;-83
2021/06/02 01:12:51;;;;;;;4.90;3.40;;;8.80;99.90;;;;;;4751251;30;20059;-83
2021/06/02 01:15:20;;;;;;;5.13;4.72;;;8.50;99.90;;;;;;4736358;30;20068;-83
2021/06/02 01:17:48;;;;;;;4.50;4.07;;;8.30;99.90;;;;;;4751446;30;20075;-83
2021/06/02 01:20:18;;;;;;;7.75;4.65;;;8.20;99.90;;;;;;4735162;30;20052;-83
2021/06/02 01:22:46;;;;;;;5.80;4.00;;;8.10;99.90;;;;;;4751074;30;20060;-83
2021/06/02 01:25:19;;;;;;;5.25;4.47;;;8.00;99.90;;;;;;4750014;30;20055;-83
2021/06/02 01:27:48;;;;;;;5.00;4.50;;;7.90;99.90;;;;;;4735306;30;20060;-83
2021/06/02 01:30:19;;;;;;;4.40;4.00;;;7.80;99.90;;;;;;4751445;30;20491;-85
2021/06/02 01:33:43;;;;;;;5.63;4.13;;;7.70;99.90;;;;;;4750619;30;20044;-83
2021/06/02 01:36:18;;;;;;;4.32;3.92;;;7.60;99.90;;;;;;4681982;30;20065;-85
2021/06/02 01:39:19;;;;;;;4.32;3.90;;;7.60;99.90;;;;;;4727071;30;20052;-84
2021/06/02 01:42:05;;;;;;;7.47;3.75;;;7.90;99.90;;;;;;4750165;30;20735;-84
2021/06/02 01:45:17;;;;;;;7.50;4.82;;;8.20;99.90;;;;;;4750941;30;20854;-83
2021/06/02 01:48:13;;;;;;;4.90;3.80;;;8.10;99.90;;;;;;4734986;30;20056;-83
2021/06/02 01:50:53;;;;;;;4.40;4.00;;;8.00;99.90;;;;;;4749699;30;20079;-83
2021/06/02 01:53:25;;;;;;;4.85;4.28;;;7.70;99.90;;;;;;4750659;30;20048;-84
2021/06/02 01:56:18;;;;;;;4.57;4.13;;;7.40;99.90;;;;;;4734040;30;20060;-84
2021/06/02 01:59:24;;;;;;;7.60;4.70;;;7.20;99.90;;;;;;4734452;30;20063;-83
2021/06/02 02:02:26;;;;;;;4.90;4.10;;;7.10;99.90;;;;;;4750647;30;20052;-83
2021/06/02 02:05:21;;;;;;;5.63;4.53;;;7.00;99.90;;;;;;4749960;30;20059;-83
2021/06/02 02:08:26;;;;;;;5.75;4.57;;;7.00;99.90;;;;;;4751257;30;20559;-83
2021/06/02 02:11:26;;;;;;;5.63;3.72;;;7.00;99.90;;;;;;4733633;30;20052;-83
2021/06/02 02:14:03;;;;;;;6.25;4.97;;;7.00;99.90;;;;;;4730490;30;20415;-83
2021/06/02 02:16:53;;;;;;;5.50;4.97;;;7.00;99.90;;;;;;4749041;30;20060;-84
2021/06/02 02:19:42;;;;;;;5.63;4.63;;;7.10;99.90;;;;;;4750396;30;20051;-83
2021/06/02 02:22:45;;;;;;;6.05;5.45;;;7.20;99.90;;;;;;4750280;30;20056;-83
2021/06/02 02:25:22;;;;;;;8.23;5.72;;;7.20;99.90;;;;;;4733509;30;20055;-83
2021/06/02 02:28:14;;;;;;;4.90;4.45;;;7.40;99.90;;;;;;4735118;30;20056;-83
2021/06/02 02:30:48;;;;;;;8.10;4.38;;;7.50;99.90;;;;;;4750200;30;20060;-84
2021/06/02 02:33:16;;;;;;;4.55;4.15;;;7.60;99.90;;;;;;4734379;30;20063;-84
2021/06/02 02:36:06;;;;;;;6.80;4.95;;;7.70;99.90;;;;;;4734034;30;20052;-83
2021/06/02 02:39:06;;;;;;;9.13;4.65;;;7.70;99.90;;;;;;4733601;30;20067;-83
2021/06/02 02:41:40;;;;;;;9.77;5.13;;;7.70;99.90;;;;;;4704012;30;20055;-84
2021/06/02 02:44:38;;;;;;;7.65;4.43;;;7.80;99.90;;;;;;4748718;30;20079;-83
2021/06/02 02:47:26;;;;;;;6.63;5.25;;;7.90;99.90;;;;;;4717675;30;20052;-82
2021/06/02 02:50:29;;;;;;;8.98;4.93;;;7.90;99.90;;;;;;4733136;30;20056;-83
2021/06/02 02:53:09;;;;;;;4.50;4.07;;;7.90;99.90;;;;;;4750081;30;20510;-83
2021/06/02 02:55:38;;;;;;;6.30;4.22;;;7.80;99.90;;;;;;4733263;30;20057;-83
2021/06/02 02:58:30;;;;;;;6.75;4.43;;;7.70;99.90;;;;;;4746201;30;20412;-83
2021/06/02 03:01:04;;;;;;;5.97;4.60;;;7.20;99.90;;;;;;4731277;30;20067;-83
2021/06/02 03:03:49;;;;;;;5.28;4.35;;;7.10;99.90;;;;;;4702588;30;20059;-82
2021/06/02 03:06:20;;;;;;;5.43;4.80;;;6.90;99.90;;;;;;4715834;30;20053;-83
2021/06/02 03:09:09;;;;;;;6.72;5.15;;;6.90;99.90;;;;;;4732342;30;20053;-83
2021/06/02 03:12:06;;;;;;;4.65;4.10;;;7.00;99.90;;;;;;4732086;30;20057;-83
2021/06/02 03:15:10;;;;;;;7.28;5.65;;;7.00;99.90;;;;;;4722165;30;20421;-83
2021/06/02 03:17:46;;;;;;;5.00;4.47;;;7.00;99.90;;;;;;4709751;30;20068;-82
2021/06/02 03:20:23;;;;;;;4.88;3.95;;;6.90;99.90;;;;;;4733795;30;20060;-82
2021/06/02 03:23:17;;;;;;;6.93;5.28;;;6.90;99.90;;;;;;4749286;30;20067;-82
2021/06/02 03:26:13;;;;;;;6.78;4.93;;;6.80;99.90;;;;;;4720798;30;20056;-83
2021/06/02 03:29:00;;;;;;;4.68;4.28;;;6.70;99.90;;;;;;4705900;30;20061;-82
2021/06/02 03:31:58;;;;;;;6.60;5.72;;;6.70;99.90;;;;;;4730864;30;20077;-83
2021/06/02 03:34:46;;;;;;;6.78;4.55;;;6.70;99.90;;;;;;4730500;30;20496;-83
2021/06/02 03:37:18;;;;;;;6.38;5.47;;;6.70;99.90;;;;;;4732027;30;20504;-83
2021/06/02 03:40:06;;;;;;;5.63;4.85;;;6.60;99.90;;;;;;4730976;30;20526;-83
2021/06/02 03:43:13;;;;;;;5.53;5.03;;;6.70;99.90;;;;;;4730788;30;20412;-83
2021/06/02 03:46:02;;;;;;;6.68;4.68;;;6.80;99.90;;;;;;4711832;30;20068;-83
2021/06/02 03:49:01;;;;;;;6.40;5.75;;;6.80;99.90;;;;;;4713119;30;20053;-84
2021/06/02 03:51:37;;;;;;;6.03;5.07;;;6.90;99.90;;;;;;4713037;30;20061;-85
2021/06/02 03:54:11;;;;;;;6.40;5.47;;;7.00;99.90;;;;;;4699227;30;20505;-86
2021/06/02 03:56:58;;;;;;;9.18;6.75;;;7.00;99.90;;;;;;4698386;30;20057;-86
2021/06/02 03:59:56;;;;;;;6.80;5.78;;;7.10;99.90;;;;;;4685213;30;20064;-86
2021/06/02 04:02:39;;;;;;;7.13;4.95;;;7.10;99.90;;;;;;4698896;30;20492;-85
2021/06/02 04:05:33;;;;;;;7.43;4.93;;;7.10;99.90;;;;;;4717394;30;20513;-86
2021/06/02 04:08:04;;;;;;;6.78;5.80;;;7.00;99.90;;;;;;4716426;30;20061;-86
2021/06/02 04:10:45;;;;;;;5.70;4.95;;;6.80;99.90;;;;;;4717025;30;20053;-85
2021/06/02 04:13:22;;;;;;;4.70;4.30;;;6.80;99.90;;;;;;4715764;30;20049;-85
2021/06/02 04:16:03;;;;;;;6.70;4.85;;;6.90;99.90;;;;;;4717787;30;20061;-85
2021/06/02 04:18:34;;;;;;;7.57;4.85;;;7.00;99.90;;;;;;4702142;30;20518;-86
2021/06/02 04:21:03;;;;;;;5.85;5.38;;;7.10;99.90;;;;;;4715630;30;20052;-85
2021/06/02 04:23:37;;;;;;;9.52;5.93;;;7.20;99.90;;;;;;4718864;30;20057;-85
2021/06/02 04:26:06;;;;;;;11.90;5.45;;;7.30;99.90;;;;;;4732149;30;20447;-85
2021/06/02 04:28:35;;;;;;;6.57;5.90;;;7.40;99.90;;;;;;4733649;30;20056;-86
2021/06/02 04:31:06;;;;;;;5.22;4.82;;;7.50;99.90;;;;;;4734313;30;20065;-86
2021/06/02 04:33:35;;;;;;;5.32;4.85;;;7.70;99.90;;;;;;4734423;30;20045;-86
2021/06/02 04:36:06;;;;;;;9.82;5.68;;;7.90;99.90;;;;;;4733123;30;20072;-86
2021/06/02 04:38:34;;;;;;;7.32;6.32;;;8.20;99.90;;;;;;4733865;30;20049;-86
2021/06/02 04:41:05;;;;;;;7.15;6.13;;;8.70;99.90;;;;;;4704130;30;20048;-86
2021/06/02 04:43:43;;;;;;;5.20;4.77;;;9.20;99.90;;;;;;4733452;30;20056;-86
2021/06/02 04:46:11;;;;;;;7.40;5.38;;;9.60;99.90;;;;;;4732477;30;20056;-85
2021/06/02 04:48:39;;;;;;;11.30;7.00;;;9.90;99.90;;;;;;4733734;30;20068;-85
2021/06/02 04:52:00;;;;;;;6.55;5.20;;;10.10;99.90;;;;;;4734344;30;20059;-86
2021/06/02 04:54:57;;;;;;;6.20;5.68;;;10.40;99.90;;;;;;4731859;30;20415;-86
2021/06/02 04:57:43;;;;;;;7.40;5.57;;;11.20;99.90;;;;;;4718517;30;20412;-85
2021/06/02 05:00:42;;;;;;;8.02;5.95;;;11.70;99.90;;;;;;4716960;30;20057;-86
2021/06/02 05:03:29;;;;;;;7.70;6.97;;;12.00;99.90;;;;;;4700850;30;20068;-86
2021/06/02 05:06:29;;;;;;;5.07;4.55;;;12.20;99.90;;;;;;4715372;30;20053;-86
2021/06/02 05:09:10;;;;;;;11.63;4.50;;;12.70;99.90;;;;;;4714854;30;20114;-86
2021/06/02 05:12:16;;;;;;;7.20;5.88;;;13.00;99.20;;;;;;4700627;30;20504;-86
2021/06/02 05:15:09;;;;;;;5.38;4.72;;;13.00;99.10;;;;;;4726844;30;20060;-90
2021/06/02 05:18:01;;;;;;;4.80;4.10;;;13.00;98.30;;;;;;4734677;30;20053;-89
2021/06/02 05:23:53;;;;;;;6.97;4.18;;;13.30;98.70;;;;;;4733764;30;20063;-90
2021/06/02 05:26:59;;;;;;;5.35;4.78;;;13.70;98.60;;;;;;4712369;30;20522;-88
2021/06/02 05:29:55;;;;;;;4.75;3.80;;;13.90;97.30;;;;;;4719345;30;20053;-89
2021/06/02 05:32:32;;;;;;;6.45;3.70;;;14.50;97.00;;;;;;4719523;30;20075;-90
2021/06/02 05:35:18;;;;;;;4.15;3.85;;;15.00;95.50;;;;;;4703430;30;20063;-89
2021/06/02 05:38:14;;;;;;;3.40;3.20;;;15.40;94.00;;;;;;4705015;30;20052;-90
2021/06/02 05:41:05;;;;;;;3.35;3.10;;;15.70;93.60;;;;;;4718609;30;20065;-90
2021/06/02 05:43:54;;;;;;;6.03;4.88;;;15.90;93.30;;;;;;4719428;30;20416;-90
2021/06/02 05:47:03;;;;;;;9.20;3.50;;;16.10;94.90;;;;;;4717213;30;20044;-89
2021/06/02 05:49:58;;;;;;;3.50;3.20;;;16.10;92.20;;;;;;4641466;30;20054;-89
2021/06/02 05:52:50;;;;;;;4.47;4.07;;;16.20;93.00;;;;;;4729978;30;20061;-88
2021/06/02 05:55:45;;;;;;;6.53;3.80;;;16.10;94.50;;;;;;4714548;30;20065;-84
2021/06/02 05:58:38;;;;;;;4.20;3.80;;;16.00;95.80;;;;;;4715778;30;20064;-87
2021/06/02 06:01:27;;;;;;;4.07;3.78;;;16.20;94.50;;;;;;4714478;30;20413;-86
2021/06/02 06:04:23;;;;;;;4.18;3.78;;;16.10;95.50;;;;;;4715091;30;20056;-87
2021/06/02 06:07:09;;;;;;;11.80;4.82;;;16.20;97.30;;;;;;4714229;30;20049;-86
2021/06/02 06:10:18;;;;;;;4.22;3.92;;;16.30;95.80;;;;;;4716402;30;20053;-92
2021/06/02 06:12:46;;;;;;;7.22;4.25;;;16.50;92.80;;;;;;4690038;30;20048;-90
2021/06/02 06:15:52;;;;;;;3.05;2.72;;;16.50;93.90;;;;;;4729486;30;20072;-87
2021/06/02 06:18:26;;;;;;;6.55;3.65;;;16.60;93.00;;;;;;4701367;30;20080;-84
2021/06/02 06:21:13;;;;;;;5.65;3.58;;;16.90;91.10;;;;;;4728685;30;20049;-88
2021/06/02 06:23:59;;;;;;;4.82;4.28;;;17.30;91.30;;;;;;4715654;30;20061;-89
2021/06/02 06:26:34;;;;;;;9.63;4.03;;;17.40;91.40;;;;;;4714630;30;20065;-89
2021/06/02 06:29:09;;;;;;;8.40;4.50;;;17.40;91.70;;;;;;4700173;30;20057;-90
2021/06/02 06:31:47;;;;;;;6.07;4.40;;;17.40;93.20;;;;;;4715377;30;20075;-90
2021/06/02 06:34:19;;;;;;;5.88;4.53;;;17.40;93.90;;;;;;4702207;30;20053;-88
2021/06/02 06:36:50;;;;;;;9.00;4.55;;;17.50;92.00;;;;;;4723665;29;20045;-89
2021/06/02 06:39:46;;;;;;;9.05;4.22;;;17.30;90.40;;;;;;4733201;30;20068;-90
2021/06/02 06:42:20;;;;;;;3.72;3.42;;;17.60;92.80;;;;;;4733192;30;20499;-91
2021/06/02 06:44:54;;;;;;;5.10;3.85;;;17.80;90.40;;;;;;4722241;30;20060;-90
2021/06/02 06:47:24;;;;;;;4.90;4.20;;;17.90;90.20;;;;;;4686611;30;20064;-90
2021/06/02 06:49:56;;;;;;;3.95;3.65;;;17.70;90.30;;;;;;4713808;30;20064;-91
2021/06/02 06:52:27;;;;;;;3.92;3.60;;;17.80;88.30;;;;;;4714989;30;20069;-90
2021/06/02 06:54:58;;;;;;;;;;;18.30;89.60;;;;;;4715491;30;20149;-89
2021/06/02 06:57:27;;;;;;;3.97;3.63;;;18.40;89.40;;;;;;4714011;30;19930;-88
2021/06/02 06:59:56;;;;;;;5.40;4.95;;;18.60;88.70;;;;;;4731371;30;20052;-87
2021/06/02 07:02:25;;;;;;;3.45;3.15;;;18.90;90.50;;;;;;4732984;30;20052;-89
2021/06/02 07:04:54;;;;;;;5.90;4.40;;;18.90;90.40;;;;;;4733740;30;20041;-88
2021/06/02 07:07:22;;;;;;;5.85;3.78;;;19.00;88.30;;;;;;4733732;30;20495;-87
2021/06/02 07:09:50;;;;;;;3.55;3.10;;;19.20;82.20;;;;;;4731031;30;20056;-89
2021/06/02 07:12:23;;;;;;;4.07;3.67;;;19.30;85.60;;;;;;4731843;30;20064;-88
2021/06/02 07:14:54;;;;;;;7.55;4.13;;;19.50;84.80;;;;;;4699077;30;20049;-86
2021/06/02 07:17:23;;;;;;;4.72;4.28;;;20.00;86.80;;;;;;4712968;30;20064;-89
2021/06/02 07:20:01;;;;;;;5.15;4.68;;;20.00;82.50;;;;;;4699905;30;20064;-87
2021/06/02 07:22:32;;;;;;;5.30;4.80;;;19.20;82.60;;;;;;4713749;30;20053;-89
2021/06/02 07:25:17;;;;;;;3.95;3.65;;;19.20;85.70;;;;;;4712828;30;20064;-87
2021/06/02 07:27:47;;;;;;;6.10;3.00;;;19.50;83.90;;;;;;4715579;30;20420;-83
2021/06/02 07:30:17;;;;;;;4.75;4.28;;;19.90;80.80;;;;;;4712921;30;20056;-83
2021/06/02 07:32:45;;;;;;;13.10;4.32;;;20.90;77.20;;;;;;4713275;30;20504;-84
2021/06/02 07:35:15;;;;;;;6.45;4.20;;;21.60;74.70;;;;;;4713792;30;20057;-84
2021/06/02 07:37:43;;;;;;;7.70;3.30;;;22.60;70.40;;;;;;4729634;30;20052;-82
2021/06/02 07:40:11;;;;;;;6.53;4.97;;;22.60;67.70;;;;;;4735055;30;20071;-82
2021/06/02 07:42:40;;;;;;;4.13;3.72;;;23.90;68.00;;;;;;4734752;30;20048;-83
2021/06/02 07:45:09;;;;;;;3.92;3.53;;;25.00;62.80;;;;;;4735215;30;20053;-83
2021/06/02 07:47:37;;;;;;;9.25;4.53;;;25.40;59.00;;;;;;4724938;30;20147;-82
2021/06/02 07:50:06;;;;;;;4.70;4.32;;;24.70;63.80;;;;;;4716524;30;20061;-84
2021/06/02 07:52:34;;;;;;;4.35;3.95;;;26.30;59.00;;;;;;4717790;30;20823;-82
2021/06/02 07:55:04;;;;;;;5.85;4.35;;;27.50;59.60;;;;;;4729969;30;20416;-84
2021/06/02 07:57:33;;;;;;;5.10;4.67;;;27.30;58.10;;;;;;4715958;30;20064;-82
2021/06/02 08:00:01;;;;;;;4.22;3.92;;;25.20;60.50;;;;;;4718180;30;20497;-85
2021/06/02 08:02:39;;;;;;;6.63;3.65;;;24.80;62.10;;;;;;4717864;30;20049;-89
2021/06/02 08:05:12;;;;;;;4.25;3.90;;;26.40;58.60;;;;;;4719315;30;20049;-88
2021/06/02 08:07:46;;;;;;;3.67;3.38;;;27.50;58.90;;;;;;4730889;30;20535;-88
2021/06/02 08:10:26;;;;;;;6.45;3.88;;;28.60;52.40;;;;;;4731980;30;20049;-88
2021/06/02 08:12:58;;;;;;;4.40;4.05;;;27.40;51.70;;;;;;4702025;30;20061;-86
2021/06/02 08:15:29;;;;;;;4.68;4.25;;;24.80;60.00;;;;;;4732583;30;20065;-92
2021/06/02 08:18:05;;;;;;;6.63;4.25;;;22.80;62.80;;;;;;4719098;30;20049;-90
2021/06/02 08:20:33;;;;;;;4.25;3.80;;;21.50;73.20;;;;;;4729723;30;20065;-92
2021/06/02 08:23:01;;;;;;;5.88;5.22;;;20.90;73.00;;;;;;4688255;30;20049;-89
2021/06/02 08:25:29;;;;;;;4.65;3.97;;;20.50;73.00;;;;;;4687400;30;20057;-89
2021/06/02 08:27:57;;;;;;;10.63;4.15;;;20.20;73.90;;;;;;4731748;30;20053;-88
2021/06/02 08:30:25;;;;;;;4.30;3.90;;;19.70;75.50;;;;;;4701704;30;20053;-89
2021/06/02 08:32:53;;;;;;;5.88;3.85;;;19.40;79.80;;;;;;4717406;30;20066;-89
2021/06/02 08:35:22;;;;;;;9.88;3.40;;;19.50;80.90;;;;;;4730929;30;20057;-88
2021/06/02 08:37:50;;;;;;;3.70;3.40;;;19.20;75.70;;;;;;4701394;30;20056;-88
2021/06/02 08:40:19;;;;;;;10.25;2.80;;;19.20;81.50;;;;;;4715529;30;20428;-90
2021/06/02 08:42:47;;;;;;;5.65;3.97;;;19.20;81.70;;;;;;4717176;30;20057;-89
2021/06/02 08:45:18;;;;;;;3.47;3.17;;;19.40;78.00;;;;;;4715214;30;20057;-91
2021/06/02 08:47:48;;;;;;;4.70;4.25;;;19.30;78.50;;;;;;4733578;30;20072;-88
2021/06/02 08:50:19;;;;;;;13.23;3.77;;;19.20;82.60;;;;;;4718225;30;20056;-92
2021/06/02 08:53:01;;;;;;;7.78;5.07;;;19.30;85.10;;;;;;4727639;30;20060;-90
2021/06/02 08:55:30;;;;;;;3.88;3.58;;;19.60;84.70;;;;;;4748587;30;20068;-88
2021/06/02 08:57:58;;;;;;;6.05;3.70;;;20.00;85.10;;;;;;4733926;30;20049;-89
2021/06/02 09:00:50;;;;;;;4.65;3.63;;;20.00;84.30;;;;;;4757121;29;20056;-87
2021/06/02 09:03:23;;;;;;;3.65;3.30;;;19.50;83.50;;;;;;4732914;30;20060;-85
2021/06/02 09:05:55;;;;;;;5.72;5.15;;;19.40;81.40;;;;;;4696391;30;20057;-86
2021/06/02 09:08:27;;;;;;;3.83;3.03;;;19.50;81.80;;;;;;4733984;30;20067;-85
2021/06/02 09:11:08;;;;;;;4.70;3.97;;;19.60;79.60;;;;;;4732504;30;20052;-85
2021/06/02 09:13:36;;;;;;;7.72;3.50;;;19.50;79.00;;;;;;4724954;30;20518;-87
2021/06/02 09:16:39;;;;;;;2.78;2.58;;;19.50;82.40;;;;;;4733997;30;20068;-87
2021/06/02 09:19:34;;;;;;;4.22;3.22;;;19.80;87.20;;;;;;4717038;30;20067;-87
2021/06/02 09:22:09;;;;;;;3.88;3.47;;;20.00;79.50;;;;;;4737356;30;20431;-87
2021/06/02 09:24:50;;;;;;;4.53;3.22;;;19.90;87.20;;;;;;4732480;30;20534;-88
2021/06/02 09:28:01;;;;;;;5.38;4.38;;;20.20;87.10;;;;;;4733816;30;20065;-88
2021/06/02 09:30:38;;;;;;;3.05;2.75;;;20.40;82.50;;;;;;4733180;30;20060;-87
2021/06/02 09:33:08;;;;;;;2.78;2.58;;;20.40;83.30;;;;;;4733456;30;20525;-86
2021/06/02 09:35:43;;;;;;;6.85;3.58;;;20.20;80.10;;;;;;4733333;30;20078;-85
2021/06/02 09:38:24;;;;;;;3.00;2.75;;;20.00;79.90;;;;;;4726166;30;20096;-86
2021/06/02 09:40:56;;;;;;;3.45;3.15;;;20.00;78.30;;;;;;4731133;30;20056;-87
2021/06/02 09:43:38;;;;;;;4.80;3.08;;;20.00;79.00;;;;;;4731980;30;20060;-85
2021/06/02 09:46:10;;;;;;;2.65;2.45;;;20.00;85.90;;;;;;4732843;30;20056;-85
2021/06/02 09:49:19;;;;;;;4.22;3.45;;;20.00;78.70;;;;;;4733190;30;20059;-90
2021/06/02 09:51:53;;;;;;;3.60;3.20;;;20.30;77.00;;;;;;4733222;30;20076;-88
2021/06/02 09:54:26;;;;;;;3.03;2.83;;;20.50;76.50;;;;;;4732847;30;20049;-88
2021/06/02 09:56:54;;;;;;;3.53;1.77;;;20.40;74.70;;;;;;4731076;30;20053;-84
2021/06/02 09:59:25;;;;;;;4.70;2.72;;;20.40;74.90;;;;;;4732239;30;20065;-85
2021/06/02 10:02:01;;;;;;;3.55;2.13;;;20.50;73.00;;;;;;4718486;30;20060;-84
2021/06/02 10:04:39;;;;;;;4.53;2.20;;;20.60;75.00;;;;;;4717830;30;20437;-83
2021/06/02 10:07:21;;;;;;;3.28;2.42;;;20.90;77.30;;;;;;4718312;30;20064;-83
2021/06/02 10:09:49;;;;;;;6.82;1.90;;;21.10;70.10;;;;;;4716336;30;20052;-83
2021/06/02 10:12:17;;;;;;;3.40;2.53;;;21.00;71.70;;;;;;4733184;30;20060;-83
2021/06/02 10:14:56;;;;;;;2.75;1.70;;;20.90;72.50;;;;;;4707015;30;20446;-83
2021/06/02 10:17:29;;;;;;;1.92;1.80;;;20.90;75.60;;;;;;4714256;30;20049;-84
2021/06/02 10:20:05;;;;;;;4.45;1.98;;;20.90;68.70;;;;;;4717259;30;20866;-82
2021/06/02 10:22:33;;;;;;;2.20;2.00;;;20.90;71.30;;;;;;4731058;30;20049;-82
2021/06/02 10:25:26;;;;;;;;;;;;;;;;;;;;;
2021/06/02 10:28:07;;;;;;;12.13;3.47;;;21.30;70.90;;;;;;4717927;30;20073;-91
2021/06/02 10:30:53;;;;;;;3.30;2.40;;;21.30;75.40;;;;;;4734425;30;20057;-88
2021/06/02 10:33:30;;;;;;;3.17;2.40;;;21.20;73.40;;;;;;4714179;30;20072;-88
2021/06/02 10:36:14;;;;;;;2.67;2.47;;;21.00;76.40;;;;;;4731631;30;20513;-86
2021/06/02 10:43:56;;;;;;;2.83;2.58;;;21.50;74.20;;;;;;4682487;30;20041;-86
2021/06/02 10:46:49;;;;;;;3.58;3.28;;;21.50;72.80;;;;;;4707434;30;20052;-84
2021/06/02 10:49:51;;;;;;;4.38;2.60;;;21.40;74.50;;;;;;4726591;30;20057;-87
2021/06/02 10:52:35;;;;;;;3.15;2.30;;;21.40;78.60;;;;;;4705839;30;20059;-86
2021/06/02 10:55:32;;;;;;;7.15;3.40;;;21.60;73.60;;;;;;4729804;30;20061;-87
2021/06/02 10:58:24;;;;;;;3.30;2.17;;;21.50;71.20;;;;;;4727976;30;20049;-82
2021/06/02 11:01:09;;;;;;;2.38;2.17;;;21.50;69.80;;;;;;4714974;30;20045;-83
2021/06/02 11:03:40;;;;;;;3.08;2.85;;;21.60;68.60;;;;;;4726614;30;20411;-83
2021/06/02 11:06:14;;;;;;;5.53;2.22;;;21.60;71.90;;;;;;4731355;30;20061;-88
2021/06/02 11:08:48;;;;;;;2.75;2.55;;;21.60;71.00;;;;;;4732784;30;20064;-89
2021/06/02 11:11:40;;;;;;;4.45;2.80;;;21.80;68.20;;;;;;4730837;30;20057;-87
2021/06/02 11:14:14;;;;;;;2.47;1.77;;;21.90;71.30;;;;;;4732234;30;20045;-86
2021/06/02 11:17:10;;;;;;;2.88;1.83;;;22.00;64.10;;;;;;4717018;30;20052;-86
2021/06/02 11:19:42;;;;;;;4.80;2.85;;;21.70;65.90;;;;;;4702687;30;20065;-84
2021/06/02 11:22:14;;;;;;;3.95;1.88;;;21.60;64.20;;;;;;4730914;30;20511;-83
2021/06/02 11:24:44;;;;;;;3.65;2.72;;;21.50;67.30;;;;;;4736529;30;20534;-85
2021/06/02 11:27:15;;;;;;;2.65;2.38;;;21.70;72.50;;;;;;4734113;30;20060;-81
2021/06/02 11:29:51;;;;;;;2.08;1.88;;;21.80;66.30;;;;;;4749880;30;20044;-83
2021/06/02 11:32:23;;;;;;;2.05;1.85;;;21.90;61.50;;;;;;4734768;30;20056;-82
2021/06/02 11:35:05;;;;;;;16.75;2.50;;;21.70;69.20;;;;;;4733703;30;20145;-89
2021/06/02 11:37:35;;;;;;;2.10;1.73;;;21.80;61.10;;;;;;4734179;30;20052;-90
2021/06/02 11:40:06;;;;;;;6.20;2.65;;;21.70;60.20;;;;;;4734335;30;20052;-87
2021/06/02 11:42:34;;;;;;;;;;;21.80;68.20;;;;;;4750499;30;20055;-91
2021/06/02 11:45:26;;;;;;;3.53;1.90;;;21.90;59.30;;;;;;4734787;30;19937;-87
2021/06/02 11:48:00;;;;;;;1.52;1.42;;;22.00;56.50;;;;;;4749572;30;20507;-87
2021/06/02 11:50:28;;;;;;;4.85;1.45;;;22.00;55.10;;;;;;4749267;30;20044;-88
2021/06/02 11:53:01;;;;;;;2.40;2.03;;;22.00;58.60;;;;;;4734257;30;20052;-88
2021/06/02 11:55:31;;;;;;;2.10;1.85;;;22.10;55.70;;;;;;4749563;30;20492;-85
2021/06/02 11:58:00;;;;;;;3.22;2.20;;;22.10;60.00;;;;;;4749531;30;20148;-84
2021/06/02 12:00:33;;;;;;;2.17;1.88;;;22.20;58.50;;;;;;4734218;30;20068;-86
2021/06/02 12:03:04;;;;;;;1.48;1.38;;;22.40;60.10;;;;;;4734462;30;20064;-89
2021/06/02 12:05:33;;;;;;;;;;;22.40;56.30;;;;;;4749793;30;20056;-89
2021/06/02 12:08:06;;;;;;;4.53;2.47;;;22.50;55.90;;;;;;4749877;30;19926;-87
2021/06/02 12:10:43;;;;;;;4.95;3.03;;;22.40;57.50;;;;;;4748805;30;20048;-90
2021/06/02 12:13:18;;;;;;;2.30;2.05;;;22.30;59.50;;;;;;4749395;30;20059;-87
2021/06/02 12:15:52;;;;;;;3.55;2.63;;;22.40;61.10;;;;;;4734435;30;20052;-89
2021/06/02 12:18:41;;;;;;;3.67;2.28;;;22.50;59.00;;;;;;4734340;30;20061;-92
2021/06/02 12:21:16;;;;;;;3.20;2.15;;;22.40;57.70;;;;;;4730223;30;20048;-89
2021/06/02 12:24:00;;;;;;;3.63;2.47;;;22.50;57.30;;;;;;4731395;30;20415;-86
2021/06/02 12:26:42;;;;;;;2.05;1.85;;;22.70;61.30;;;;;;4718630;30;20056;-83
2021/06/02 12:29:12;;;;;;;2.85;2.30;;;22.50;56.80;;;;;;4734852;30;20053;-85
2021/06/02 12:31:52;;;;;;;3.75;2.08;;;22.50;56.50;;;;;;4732368;30;20071;-84
2021/06/02 12:34:23;;;;;;;5.90;2.90;;;22.50;57.20;;;;;;4707637;30;20466;-87
2021/06/02 12:36:53;;;;;;;2.85;2.55;;;22.60;67.60;;;;;;4736190;30;20048;-82
2021/06/02 12:39:23;;;;;;;4.53;2.15;;;22.70;63.80;;;;;;4736534;30;20064;-83
2021/06/02 12:41:52;;;;;;;2.40;2.08;;;22.80;62.20;;;;;;4735902;30;20063;-84
2021/06/02 12:44:28;;;;;;;3.10;2.25;;;22.90;57.70;;;;;;4752586;30;20056;-84
2021/06/02 12:46:57;;;;;;;3.17;1.83;;;22.80;59.80;;;;;;4735347;30;20410;-82
2021/06/02 12:49:25;;;;;;;4.43;2.05;;;22.60;58.60;;;;;;4736223;30;20051;-82
2021/06/02 12:51:56;;;;;;;4.25;2.17;;;22.80;61.40;;;;;;4752015;30;20127;-84
2021/06/02 12:54:30;;;;;;;2.17;1.58;;;23.00;59.30;;;;;;4735554;30;20494;-86
2021/06/02 12:56:59;;;;;;;1.65;1.55;;;23.00;56.50;;;;;;4736159;30;20051;-83
2021/06/02 12:59:32;;;;;;;2.40;1.75;;;23.00;55.00;;;;;;4733494;30;20057;-84
2021/06/02 13:02:02;;;;;;;3.05;1.83;;;22.90;54.60;;;;;;4718354;30;20052;-85
2021/06/02 13:04:31;;;;;;;;;;;22.90;57.40;;;;;;4690304;30;20061;-83
2021/06/02 13:06:59;;;;;;;1.45;1.33;;;22.90;60.70;;;;;;4704734;30;20011;-84
2021/06/02 13:09:27;;;;;;;1.52;1.42;;;23.10;55.10;;;;;;4717349;30;20056;-83
2021/06/02 13:11:56;;;;;;;2.60;2.15;;;23.10;58.60;;;;;;4740420;30;20048;-84
2021/06/02 13:14:36;;;;;;;3.90;1.40;;;23.20;56.50;;;;;;4726012;30;20415;-84
2021/06/02 13:17:05;;;;;;;1.67;1.57;;;23.10;53.70;;;;;;4735675;30;20500;-84
2021/06/02 13:19:51;;;;;;;2.08;1.85;;;23.00;55.00;;;;;;4751827;30;20423;-83
2021/06/02 13:22:22;;;;;;;6.20;2.78;;;23.10;57.40;;;;;;4735517;30;20515;-83
2021/06/02 13:24:50;;;;;;;6.43;1.90;;;23.10;54.40;;;;;;4720132;30;20052;-82
2021/06/02 13:27:20;;;;;;;1.50;1.35;;;23.20;55.20;;;;;;4734890;30;20071;-82
2021/06/02 13:30:10;;;;;;;1.75;1.63;;;23.20;52.40;;;;;;4751037;30;20044;-82
2021/06/02 13:32:38;;;;;;;4.07;2.28;;;23.20;57.00;;;;;;4734147;30;20060;-83
2021/06/02 13:35:18;;;;;;;2.70;2.30;;;23.20;51.70;;;;;;4751817;30;20060;-82
2021/06/02 13:37:47;;;;;;;2.53;2.17;;;23.10;51.30;;;;;;4751379;30;20511;-83
2021/06/02 13:40:18;;;;;;;1.35;1.25;;;23.00;50.50;;;;;;4751516;30;20056;-83
2021/06/02 13:43:13;;;;;;;2.30;2.05;;;23.00;53.50;;;;;;4734634;30;20052;-85
2021/06/02 13:46:07;;;;;;;2.70;1.95;;;23.20;51.50;;;;;;4750266;30;20048;-83
2021/06/02 13:48:49;;;;;;;1.98;1.88;;;23.40;50.50;;;;;;4749669;30;20056;-85
2021/06/02 13:51:28;;;;;;;4.07;2.60;;;23.40;49.20;;;;;;4751707;30;20063;-83
2021/06/02 13:54:15;;;;;;;3.50;2.25;;;23.40;50.50;;;;;;4751494;30;20052;-80
2021/06/02 13:57:11;;;;;;;8.20;1.95;;;23.30;51.20;;;;;;4750767;30;20064;-84
2021/06/02 13:59:48;;;;;;;1.60;1.50;;;23.30;52.80;;;;;;4749227;30;20071;-83